createdAt,value
2022-10-04T00:02:03.987Z,100233.28
2022-10-04T00:04:42.731Z,100237.34
2022-10-04T00:07:13.526Z,100235.88
2022-10-04T00:09:55.634Z,100237.37
2022-10-04T00:12:39.217Z,100237.91
2022-10-04T00:15:31.183Z,100246.34
2022-10-04T00:18:07.464Z,100248.34
2022-10-04T00:21:05.495Z,100257.09
2022-10-04T00:23:35.872Z,100255.44
2022-10-04T00:26:06.086Z,100250.09
2022-10-04T00:28:46.563Z,100249.97
2022-10-04T00:31:19.949Z,100248.06
2022-10-04T00:33:50.306Z,100249.09
2022-10-04T00:36:24.058Z,100241.69
2022-10-04T00:39:06.649Z,100240.97
2022-10-04T00:41:58.237Z,100227.41
2022-10-04T00:44:28.402Z,100238.75
2022-10-04T00:46:57.761Z,100234.53
2022-10-04T00:49:30.077Z,100228.53
2022-10-04T00:52:28.758Z,100223.47
2022-10-04T00:54:58.816Z,100229.78
2022-10-04T00:57:39.643Z,100230.91
2022-10-04T01:00:19.249Z,100233.34
2022-10-04T01:02:53.457Z,100228.53
2022-10-04T01:05:26.504Z,100228.59
2022-10-04T01:08:05.828Z,100228.44
2022-10-04T01:10:39.529Z,100231.81
2022-10-04T01:13:14.640Z,100227.91
2022-10-04T01:15:53.214Z,100231.31
2022-10-04T01:18:20.863Z,100225.50
2022-10-04T01:21:05.927Z,100223.66
2022-10-04T01:23:41.850Z,100211.28
2022-10-04T01:26:32.214Z,100211.41
2022-10-04T01:29:20.284Z,100205.81
2022-10-04T01:31:55.542Z,100209.63
2022-10-04T01:34:30.535Z,100216.31
2022-10-04T01:36:59.925Z,100219.56
2022-10-04T01:39:28.961Z,100215.81
2022-10-04T01:42:10.690Z,100217.81
2022-10-04T01:44:48.790Z,100215.22
2022-10-04T01:47:21.479Z,100217.44
2022-10-04T01:49:52.717Z,100222.41
2022-10-04T01:52:23.854Z,100234.41
2022-10-04T01:55:01.141Z,100234.78
2022-10-04T01:57:41.939Z,100234.84
2022-10-04T02:00:12.329Z,100236.16
2022-10-04T02:02:52.440Z,100232.91
2022-10-04T02:05:31.465Z,100237.50
2022-10-04T02:08:04.602Z,100231.59
2022-10-04T02:10:34.089Z,100230.87
2022-10-04T02:13:02.105Z,100233.94
2022-10-04T02:15:30.343Z,100233.66
2022-10-04T02:17:58.438Z,100235.25
2022-10-04T02:20:27.267Z,100234.22
2022-10-04T02:23:03.002Z,100236.28
2022-10-04T02:25:31.036Z,100237.34
2022-10-04T02:27:58.522Z,100236.13
2022-10-04T02:30:25.971Z,100244.22
2022-10-04T02:33:01.403Z,100236.75
2022-10-04T02:35:59.473Z,100241.88
2022-10-04T02:38:34.321Z,100247.28
2022-10-04T02:41:07.062Z,100245.25
2022-10-04T02:43:59.052Z,100244.63
2022-10-04T02:46:46.926Z,100250.19
2022-10-04T02:49:32.031Z,100246.41
2022-10-04T02:52:03.993Z,100246.41
2022-10-04T02:54:35.811Z,100251.78
2022-10-04T02:57:03.420Z,100243.81
2022-10-04T02:59:34.735Z,100237.34
2022-10-04T03:02:04.838Z,100244.31
2022-10-04T03:04:34.189Z,100243.87
2022-10-04T03:07:02.973Z,100243.87
2022-10-04T03:09:31.079Z,100239.09
2022-10-04T03:11:59.157Z,100244.03
2022-10-04T03:14:28.251Z,100238.19
2022-10-04T03:17:01.230Z,100242.47
2022-10-04T03:19:30.420Z,100238.41
2022-10-04T03:22:02.132Z,100237.25
2022-10-04T03:24:47.016Z,100236.78
2022-10-04T03:27:20.082Z,100238.72
2022-10-04T03:29:47.750Z,100247.13
2022-10-04T03:32:17.189Z,100248.53
2022-10-04T03:35:00.296Z,100248.44
2022-10-04T03:37:31.125Z,100254.75
2022-10-04T03:39:59.450Z,100254.66
2022-10-04T03:42:29.872Z,100248.66
2022-10-04T03:45:02.428Z,100256.81
2022-10-04T03:47:32.996Z,100254.78
2022-10-04T03:50:24.820Z,100256.94
2022-10-04T03:52:57.412Z,100254.03
2022-10-04T03:55:38.937Z,100247.94
2022-10-04T04:01:39.526Z,100254.00
2022-10-04T04:04:15.947Z,100262.47
2022-10-04T04:06:50.545Z,100248.97
2022-10-04T04:09:48.091Z,100252.94
2022-10-04T04:12:22.529Z,100254.34
2022-10-04T04:14:51.999Z,100254.41
2022-10-04T04:17:41.189Z,100247.91
2022-10-04T04:20:28.157Z,100254.34
2022-10-04T04:22:59.917Z,100264.22
2022-10-04T04:25:29.372Z,100260.87
2022-10-04T04:28:03.206Z,100269.22
2022-10-04T04:30:32.758Z,100271.34
2022-10-04T04:33:06.014Z,100265.66
2022-10-04T04:35:36.333Z,100278.28
2022-10-04T04:38:04.981Z,100282.28
2022-10-04T04:40:32.874Z,100282.22
2022-10-04T04:43:01.623Z,100281.97
2022-10-04T04:45:30.775Z,100287.75
2022-10-04T04:47:58.819Z,100285.28
2022-10-04T04:50:31.669Z,100287.16
2022-10-04T04:53:23.655Z,100278.53
2022-10-04T04:56:03.712Z,100286.06
2022-10-04T04:58:42.494Z,100283.56
2022-10-04T05:01:29.471Z,100296.03
2022-10-04T05:04:09.291Z,100293.91
2022-10-04T05:06:41.722Z,100304.44
2022-10-04T05:09:28.458Z,100302.00
2022-10-04T05:12:03.040Z,100305.34
2022-10-04T05:14:31.427Z,100308.78
2022-10-04T05:16:59.253Z,100306.00
2022-10-04T05:19:31.217Z,100308.50
2022-10-04T05:22:01.445Z,100310.44
2022-10-04T05:24:34.112Z,100321.66
2022-10-04T05:27:03.413Z,100306.81
2022-10-04T05:29:34.284Z,100322.06
2022-10-04T05:32:16.253Z,100320.28
2022-10-04T05:34:47.048Z,100328.03
2022-10-04T05:37:42.779Z,100327.88
2022-10-04T05:40:13.242Z,100335.53
2022-10-04T05:42:45.500Z,100326.25
2022-10-04T05:45:25.212Z,100331.41
2022-10-04T05:47:55.008Z,100333.28
2022-10-04T05:50:40.892Z,100339.44
2022-10-04T05:53:35.623Z,100332.72
2022-10-04T05:56:30.570Z,100335.37
2022-10-04T05:59:13.197Z,100342.09
2022-10-04T06:01:47.103Z,100346.38
2022-10-04T06:04:39.718Z,100343.34
2022-10-04T06:07:36.426Z,100351.22
2022-10-04T06:10:44.340Z,100352.37
2022-10-04T06:13:22.812Z,100356.41
2022-10-04T06:15:57.658Z,100362.37
2022-10-04T06:18:28.237Z,100363.97
2022-10-04T06:21:33.400Z,100366.28
2022-10-04T06:24:10.460Z,100360.06
2022-10-04T06:26:48.868Z,100349.31
2022-10-04T06:29:20.716Z,100367.81
2022-10-04T06:31:59.843Z,100372.28
2022-10-04T06:34:52.789Z,100372.66
2022-10-04T06:37:29.648Z,100366.88
2022-10-04T06:40:52.126Z,100368.38
2022-10-04T06:43:30.572Z,100373.97
2022-10-04T06:46:09.119Z,100376.25
2022-10-04T06:48:49.045Z,100379.59
2022-10-04T06:51:25.743Z,100379.75
2022-10-04T06:54:15.488Z,100390.38
2022-10-04T06:57:22.304Z,100380.38
2022-10-04T07:00:00.389Z,100388.63
2022-10-04T07:02:32.123Z,100388.00
2022-10-04T07:05:09.363Z,100387.41
2022-10-04T07:07:47.606Z,100389.09
2022-10-04T07:10:31.039Z,100390.66
2022-10-04T07:13:05.381Z,100397.25
2022-10-04T07:16:04.061Z,100391.75
2022-10-04T07:18:58.136Z,100404.47
2022-10-04T07:21:28.270Z,100396.19
2022-10-04T07:23:58.596Z,100400.69
2022-10-04T07:26:34.350Z,100396.87
2022-10-04T07:29:20.541Z,100403.97
2022-10-04T07:31:52.190Z,100402.56
2022-10-04T07:34:26.630Z,100407.09
2022-10-04T07:36:55.461Z,100405.72
2022-10-04T07:39:30.858Z,100397.19
2022-10-04T07:42:21.850Z,100392.56
2022-10-04T07:45:18.900Z,100397.13
2022-10-04T07:47:47.267Z,100395.84
2022-10-04T07:50:34.409Z,100392.13
2022-10-04T07:53:16.480Z,100392.97
2022-10-04T07:55:56.607Z,100399.56
2022-10-04T07:58:45.371Z,100396.28
2022-10-04T08:01:34.639Z,100395.47
2022-10-04T08:04:20.829Z,100402.53
2022-10-04T08:07:00.756Z,100403.16
2022-10-04T08:09:42.643Z,100410.25
2022-10-04T08:12:34.947Z,100413.69
2022-10-04T08:15:14.923Z,100409.78
2022-10-04T08:18:03.608Z,100408.84
2022-10-04T08:20:45.587Z,100412.72
2022-10-04T08:23:41.169Z,100422.06
2022-10-04T08:26:38.333Z,100421.03
2022-10-04T08:29:42.606Z,100430.72
2022-10-04T08:32:23.380Z,100431.72
2022-10-04T08:35:16.562Z,100444.28
2022-10-04T08:38:03.211Z,100430.69
2022-10-04T08:40:58.547Z,100431.78
2022-10-04T08:43:57.715Z,100431.03
2022-10-04T08:46:41.381Z,100438.06
2022-10-04T08:49:47.069Z,100427.75
2022-10-04T08:52:33.620Z,100432.12
2022-10-04T08:55:15.897Z,100436.59
2022-10-04T08:58:15.997Z,100437.37
2022-10-04T09:01:13.509Z,100432.97
2022-10-04T09:04:06.604Z,100441.81
2022-10-04T09:06:45.941Z,100439.31
2022-10-04T09:09:37.173Z,100435.31
2022-10-04T09:12:23.118Z,100438.78
2022-10-04T09:15:03.961Z,100442.38
2022-10-04T09:17:54.611Z,100435.72
2022-10-04T09:20:43.778Z,100450.13
2022-10-04T09:23:38.225Z,100442.94
2022-10-04T09:26:23.091Z,100434.53
2022-10-04T09:29:14.208Z,100420.13
2022-10-04T09:32:23.401Z,100427.16
2022-10-04T09:35:15.482Z,100435.84
2022-10-04T09:37:48.956Z,100437.09
2022-10-04T09:40:51.565Z,100440.06
2022-10-04T09:46:44.658Z,100422.59
2022-10-04T09:49:50.581Z,100428.06
2022-10-04T09:52:21.224Z,100434.97
2022-10-04T09:55:06.735Z,100435.03
2022-10-04T09:57:57.429Z,100451.94
2022-10-04T10:00:36.922Z,100453.97
2022-10-04T10:03:15.988Z,100458.25
2022-10-04T10:06:09.160Z,100454.88
2022-10-04T10:09:11.447Z,100450.59
2022-10-04T10:12:03.554Z,100455.91
2022-10-04T10:15:06.246Z,100450.66
2022-10-04T10:17:46.086Z,100454.28
2022-10-04T10:20:38.269Z,100461.25
2022-10-04T10:23:27.491Z,100473.75
2022-10-04T10:26:04.054Z,100462.12
2022-10-04T10:28:49.695Z,100459.31
2022-10-04T10:31:30.778Z,100476.25
2022-10-04T10:34:26.732Z,100479.44
2022-10-04T10:37:04.552Z,100484.06
2022-10-04T10:39:54.065Z,100485.72
2022-10-04T10:42:27.747Z,100476.00
2022-10-04T10:45:29.337Z,100482.13
2022-10-04T10:48:14.055Z,100483.38
2022-10-04T10:51:02.735Z,100478.56
2022-10-04T10:53:46.272Z,100479.88
2022-10-04T10:56:32.665Z,100469.00
2022-10-04T10:59:25.609Z,100472.62
2022-10-04T11:02:42.243Z,100465.56
2022-10-04T11:05:23.663Z,100458.31
2022-10-04T11:08:14.245Z,100470.72
2022-10-04T11:11:03.927Z,100471.47
2022-10-04T11:13:50.076Z,100471.75
2022-10-04T11:16:47.651Z,100459.78
2022-10-04T11:19:47.284Z,100465.34
2022-10-04T11:22:38.166Z,100458.44
2022-10-04T11:25:25.244Z,100471.00
2022-10-04T11:28:08.280Z,100472.84
2022-10-04T11:30:58.912Z,100477.09
2022-10-04T11:33:29.364Z,100465.31
2022-10-04T11:36:11.520Z,100458.88
2022-10-04T11:39:03.312Z,100465.34
2022-10-04T11:41:41.554Z,100462.41
2022-10-04T11:44:55.628Z,100471.31
2022-10-04T11:47:47.415Z,100461.78
2022-10-04T11:50:50.078Z,100461.28
2022-10-04T11:53:39.300Z,100464.13
2022-10-04T11:56:26.491Z,100476.53
2022-10-04T11:59:15.459Z,100473.12
2022-10-04T12:02:03.391Z,100467.09
2022-10-04T12:04:34.008Z,100469.47
2022-10-04T12:07:08.464Z,100477.28
2022-10-04T12:09:39.050Z,100469.81
2022-10-04T12:12:38.819Z,100477.47
2022-10-04T12:15:38.597Z,100473.38
2022-10-04T12:18:28.543Z,100471.13
2022-10-04T12:21:23.990Z,100476.69
2022-10-04T12:24:13.163Z,100482.66
2022-10-04T12:27:24.430Z,100495.00
2022-10-04T12:30:15.067Z,100498.34
2022-10-04T12:33:03.575Z,100486.19
2022-10-04T12:35:53.991Z,100489.69
2022-10-04T12:39:00.299Z,100492.66
2022-10-04T12:41:49.042Z,100493.72
2022-10-04T12:44:27.235Z,100496.03
2022-10-04T12:47:32.152Z,100491.44
2022-10-04T12:50:11.413Z,100485.06
2022-10-04T12:52:50.052Z,100479.25
2022-10-04T12:55:49.070Z,100484.72
2022-10-04T12:58:33.082Z,100488.03
2022-10-04T13:01:26.180Z,100472.84
2022-10-04T13:04:19.379Z,100488.91
2022-10-04T13:06:50.593Z,100480.72
2022-10-04T13:10:05.365Z,100485.84
2022-10-04T13:13:05.132Z,100477.75
2022-10-04T13:19:30.468Z,100477.87
2022-10-04T13:22:10.164Z,100463.97
2022-10-04T13:24:56.109Z,100475.84
2022-10-04T13:28:02.411Z,100455.69
2022-10-04T13:30:38.073Z,100472.38
2022-10-04T13:33:26.322Z,100467.47
2022-10-04T13:36:11.505Z,100468.22
2022-10-04T13:38:57.921Z,100481.16
2022-10-04T13:41:37.326Z,100482.41
2022-10-04T13:44:26.589Z,100479.28
2022-10-04T13:47:06.698Z,100478.47
2022-10-04T13:49:49.278Z,100487.03
2022-10-04T13:53:06.719Z,100487.47
2022-10-04T13:56:11.734Z,100479.47
2022-10-04T13:58:39.464Z,100486.66
2022-10-04T14:01:20.765Z,100480.47
2022-10-04T14:04:19.422Z,100487.84
2022-10-04T14:07:05.390Z,100492.25
2022-10-04T14:09:52.129Z,100499.25
2022-10-04T14:12:38.624Z,100494.25
2022-10-04T14:15:29.649Z,100494.09
2022-10-04T14:18:31.256Z,100500.06
2022-10-04T14:21:18.131Z,100493.91
2022-10-04T15:21:47.266Z,100528.84
2022-10-04T15:24:39.581Z,100527.72
2022-10-04T15:27:47.306Z,100528.72
2022-10-04T15:30:30.716Z,100535.34
2022-10-04T15:33:19.630Z,100531.84
2022-10-04T15:35:58.792Z,100541.03
2022-10-04T15:38:53.741Z,100547.22
2022-10-04T15:41:27.806Z,100543.38
2022-10-04T15:44:11.861Z,100545.28
2022-10-04T15:46:45.476Z,100557.91
2022-10-04T15:49:55.611Z,100558.31
2022-10-04T15:52:50.750Z,100559.28
2022-10-04T15:55:36.274Z,100571.84
2022-10-04T15:58:28.937Z,100570.31
2022-10-04T16:01:04.434Z,100575.75
2022-10-04T16:04:09.924Z,100581.62
2022-10-04T16:06:47.996Z,100573.34
2022-10-04T16:09:27.345Z,100581.50
2022-10-04T16:12:06.284Z,100591.56
2022-10-04T16:14:53.578Z,100586.03
2022-10-04T16:17:26.813Z,100591.12
2022-10-04T16:20:04.613Z,100592.87
2022-10-04T16:22:33.430Z,100589.78
2022-10-04T16:25:24.199Z,100608.50
2022-10-04T16:27:57.574Z,100603.16
2022-10-04T16:30:37.176Z,100595.38
2022-10-04T16:33:23.239Z,100595.94
2022-10-04T16:36:22.097Z,100602.84
2022-10-04T16:39:26.749Z,100596.16
2022-10-04T16:42:02.671Z,100592.69
2022-10-04T16:44:50.102Z,100602.81
2022-10-04T16:47:29.727Z,100611.62
2022-10-04T16:49:58.764Z,100613.25
2022-10-04T16:52:38.754Z,100619.69
2022-10-04T16:55:38.407Z,100624.41
2022-10-04T16:58:28.144Z,100633.59
2022-10-04T17:01:23.540Z,100632.31
2022-10-04T17:04:18.893Z,100637.13
2022-10-04T17:07:14.382Z,100633.97
2022-10-04T17:10:02.807Z,100637.97
2022-10-04T17:12:45.553Z,100643.87
2022-10-04T17:15:28.532Z,100643.28
2022-10-04T17:18:19.389Z,100651.25
2022-10-04T17:20:50.167Z,100652.75
2022-10-04T17:23:35.834Z,100652.84
2022-10-04T17:26:38.348Z,100663.66
2022-10-04T17:29:48.260Z,100661.31
2022-10-04T17:32:47.136Z,100668.69
2022-10-04T17:35:53.008Z,100668.56
2022-10-04T17:38:43.691Z,100681.50
2022-10-04T17:41:19.271Z,100672.88
2022-10-04T17:44:13.375Z,100676.44
2022-10-04T17:47:08.632Z,100665.44
2022-10-04T17:50:23.960Z,100672.59
2022-10-04T17:53:17.954Z,100671.22
2022-10-04T17:55:50.491Z,100680.47
2022-10-04T17:58:30.620Z,100677.59
2022-10-04T18:00:58.241Z,100692.16
2022-10-04T18:03:41.637Z,100691.06
2022-10-04T18:06:37.065Z,100686.50
2022-10-04T18:09:43.417Z,100693.44
2022-10-04T18:12:36.935Z,100687.53
2022-10-04T18:15:37.806Z,100688.16
2022-10-04T18:18:16.068Z,100699.47
2022-10-04T18:21:05.249Z,100693.59
2022-10-04T18:23:35.799Z,100705.13
2022-10-04T18:26:12.058Z,100712.25
2022-10-04T18:28:39.728Z,100705.59
2022-10-04T18:31:29.699Z,100713.19
2022-10-04T18:34:01.896Z,100708.63
2022-10-04T18:36:36.428Z,100711.56
2022-10-04T18:39:13.387Z,100707.84
2022-10-04T18:41:55.036Z,100721.97
2022-10-04T18:45:01.858Z,100716.88
2022-10-04T18:47:34.622Z,100727.19
2022-10-04T18:50:06.903Z,100733.91
2022-10-04T18:53:02.366Z,100730.19
2022-10-04T18:55:51.946Z,100730.84
2022-10-04T18:59:04.575Z,100733.91
2022-10-04T19:01:57.511Z,100732.84
2022-10-04T19:04:37.776Z,100735.44
2022-10-04T19:07:24.273Z,100738.94
2022-10-04T19:10:01.679Z,100746.78
2022-10-04T19:12:38.618Z,100749.94
2022-10-04T19:15:35.372Z,100746.34
2022-10-04T19:18:09.295Z,100752.44
2022-10-04T19:20:41.402Z,100757.03
2022-10-04T19:23:22.034Z,100761.06
2022-10-04T19:26:30.584Z,100761.84
2022-10-04T19:29:19.606Z,100765.69
2022-10-04T19:32:01.903Z,100767.69
2022-10-04T19:34:37.997Z,100779.94
2022-10-04T19:37:16.175Z,100779.72
2022-10-04T19:39:54.650Z,100779.91
2022-10-04T19:42:43.242Z,100784.72
2022-10-04T19:45:33.911Z,100792.66
2022-10-04T19:48:07.617Z,100784.03
2022-10-04T19:50:41.632Z,100786.00
2022-10-04T19:53:21.221Z,100789.03
2022-10-04T19:55:51.501Z,100789.28
2022-10-04T19:58:40.666Z,100792.53
2022-10-04T20:01:14.731Z,100807.28
2022-10-04T20:03:43.868Z,100801.19
2022-10-04T20:06:20.277Z,100801.16
2022-10-04T20:09:02.575Z,100803.91
2022-10-04T20:11:52.001Z,100809.13
2022-10-04T20:14:23.373Z,100816.91
2022-10-04T20:16:51.349Z,100803.81
2022-10-04T20:19:24.857Z,100809.41
2022-10-04T20:21:52.594Z,100814.97
2022-10-04T20:24:41.830Z,100809.19
2022-10-04T20:27:24.732Z,100807.19
2022-10-04T20:29:52.041Z,100815.31
2022-10-04T20:32:29.887Z,100818.88
2022-10-04T20:34:58.053Z,100830.72
2022-10-04T20:37:43.856Z,100822.72
2022-10-04T20:40:34.594Z,100825.91
2022-10-04T20:43:14.235Z,100833.31
2022-10-04T20:45:54.365Z,100830.00
2022-10-04T20:48:24.044Z,100827.94
2022-10-04T20:50:52.353Z,100835.09
2022-10-04T20:53:22.745Z,100836.69
2022-10-04T20:55:57.220Z,100836.87
2022-10-04T20:58:32.876Z,100846.63
2022-10-04T21:01:18.307Z,100840.47
2022-10-04T21:03:45.826Z,100839.09
2022-10-04T21:06:13.415Z,100833.28
2022-10-04T21:08:41.156Z,100839.78
2022-10-04T21:11:08.449Z,100839.06
2022-10-04T21:13:50.336Z,100845.44
2022-10-04T21:16:36.398Z,100842.47
2022-10-04T21:19:32.329Z,100856.00
2022-10-04T21:22:07.734Z,100848.94
2022-10-04T21:24:50.414Z,100843.47
2022-10-04T21:27:26.948Z,100841.41
2022-10-04T21:29:54.895Z,100852.06
2022-10-04T21:32:23.131Z,100854.53
2022-10-04T21:34:54.584Z,100860.28
2022-10-04T21:37:22.481Z,100862.16
2022-10-04T21:39:49.823Z,100850.59
2022-10-04T21:42:17.512Z,100856.50
2022-10-04T21:44:45.280Z,100870.13
2022-10-04T21:47:12.649Z,100879.09
2022-10-04T21:49:40.094Z,100870.31
2022-10-04T21:52:08.072Z,100878.50
2022-10-04T21:54:35.570Z,100877.44
2022-10-04T21:57:02.952Z,100870.41
2022-10-04T21:59:30.599Z,100876.59
2022-10-04T22:01:57.997Z,100877.09
2022-10-04T22:04:25.694Z,100878.09
2022-10-04T22:06:53.026Z,100878.31
2022-10-04T22:09:20.656Z,100883.44
2022-10-04T22:11:48.582Z,100886.41
2022-10-04T22:14:16.054Z,100884.56
2022-10-04T22:16:44.032Z,100875.78
2022-10-04T22:19:12.002Z,100874.72
2022-10-04T22:21:39.376Z,100891.63
2022-10-04T22:24:16.507Z,100891.75
2022-10-04T22:26:44.425Z,100886.44
2022-10-04T22:29:17.382Z,100890.22
2022-10-04T22:31:50.980Z,100890.47
2022-10-04T22:34:20.943Z,100888.06
2022-10-04T22:36:50.130Z,100887.03
2022-10-04T22:39:19.040Z,100891.63
2022-10-04T22:41:48.206Z,100898.25
2022-10-04T22:44:19.750Z,100889.78
2022-10-04T22:46:49.983Z,100909.00
2022-10-04T22:49:21.084Z,100893.72
2022-10-04T22:51:51.571Z,100888.72
2022-10-04T22:54:21.391Z,100901.72
2022-10-04T22:56:49.713Z,100904.03
2022-10-04T22:59:19.693Z,100894.97
2022-10-04T23:01:47.857Z,100901.16
2022-10-04T23:04:23.558Z,100903.44
2022-10-04T23:06:52.019Z,100901.22
2022-10-04T23:09:19.958Z,100909.31
2022-10-04T23:11:47.532Z,100903.59
2022-10-04T23:14:15.433Z,100908.97
2022-10-04T23:16:44.671Z,100909.41
2022-10-04T23:19:14.757Z,100907.41
2022-10-04T23:21:47.331Z,100919.63
2022-10-04T23:24:17.322Z,100925.59
2022-10-04T23:26:47.363Z,100916.34
2022-10-04T23:29:23.728Z,100920.19
2022-10-04T23:31:52.721Z,100917.03
2022-10-04T23:34:26.855Z,100920.75
2022-10-04T23:37:00.853Z,100928.72
2022-10-04T23:39:30.479Z,100931.19
2022-10-04T23:41:58.535Z,100937.03
2022-10-04T23:44:32.062Z,100938.03
2022-10-04T23:46:59.796Z,100928.25
2022-10-04T23:49:27.172Z,100930.53
2022-10-04T23:51:59.175Z,100937.03
2022-10-04T23:54:27.602Z,100936.03
2022-10-04T23:56:55.076Z,100939.97
2022-10-04T23:59:25.396Z,100940.19
